Time;durP1;ratioP1;P1;durP2;ratioP2;P2;SDS_P1;SDS_P2;PMS_P1;PMS_P2;Temp;Humidity;BMP_temperature;BMP_pressure;BME280_temperature;BME280_humidity;BME280_pressure;Samples;Min_cycle;Max_cycle;Signal;HPM_P1;HPM_P2
2022/04/02 00:06:16;;;;;;;17.80;11.30;;;;;;;-0.97;87.12;97123.14;432596;1269;98008;-40
2022/04/02 00:16:23;;;;;;;20.20;11.00;;;;;;;-0.93;87.21;97119.95;432695;1270;108843;-40
2022/04/02 00:26:30;;;;;;;18.40;10.50;;;;;;;-0.90;87.27;97112.56;432636;1270;99289;-39
2022/04/02 00:46:45;;;;;;;17.50;10.10;;;;;;;-0.90;87.24;97119.08;432621;1270;108909;-40
2022/04/02 00:56:54;;;;;;;21.10;13.70;;;;;;;-0.97;87.40;97114.38;432405;1270;99247;-39
2022/04/02 01:07:01;;;;;;;24.00;11.20;;;;;;;-1.07;87.32;97117.27;433055;1262;107624;-41
2022/04/02 01:17:08;;;;;;;18.30;11.90;;;;;;;-1.04;87.24;97120.84;432902;1269;99284;-40
2022/04/02 01:27:15;;;;;;;22.60;11.90;;;;;;;-1.02;87.30;97133.49;433188;1270;112203;-40
2022/04/02 01:37:22;;;;;;;17.40;11.80;;;;;;;-0.98;87.40;97138.66;433155;1269;108919;-40
2022/04/02 01:47:29;;;;;;;21.30;13.50;;;;;;;-0.98;87.26;97141.65;433253;1269;99248;-41
2022/04/02 01:57:37;;;;;;;25.80;17.10;;;;;;;-1.03;87.33;97145.86;433107;1269;108822;-40
2022/04/02 02:07:49;;;;;;;27.60;18.50;;;;;;;-1.13;87.31;97148.39;433116;1269;99382;-40
2022/04/02 02:17:56;;;;;;;29.00;15.40;;;;;;;-1.08;87.14;97157.14;433125;1270;112412;-39
2022/04/02 02:28:04;;;;;;;24.20;14.80;;;;;;;-1.07;87.41;97155.75;433081;1268;108762;-40
2022/04/02 02:38:14;;;;;;;29.90;16.20;;;;;;;-1.03;87.42;97158.23;433245;1270;99288;-41
2022/04/02 02:58:28;;;;;;;19.70;13.10;;;;;;;-1.04;87.57;97159.08;433225;1270;99276;-40
2022/04/02 03:08:35;;;;;;;29.80;17.80;;;;;;;-1.09;87.48;97156.19;432549;1271;112558;-41
2022/04/02 03:18:42;;;;;;;27.80;15.40;;;;;;;-1.25;87.54;97156.48;432886;1270;108991;-40
2022/04/02 03:28:49;;;;;;;23.30;14.20;;;;;;;-1.23;87.47;97160.16;432796;1270;97959;-41
2022/04/02 03:38:56;;;;;;;14.80;11.90;;;;;;;-1.17;87.45;97167.44;432384;1271;112373;-40
2022/04/02 03:49:03;;;;;;;17.00;10.40;;;;;;;-1.15;87.59;97175.55;432932;1270;108790;-40
2022/04/02 03:59:11;;;;;;;27.40;14.90;;;;;;;-1.18;87.59;97181.77;433026;1270;99942;-39
2022/04/02 04:09:20;;;;;;;26.70;15.00;;;;;;;-1.30;87.65;97183.59;433147;1270;112515;-41
2022/04/02 04:19:27;;;;;;;14.30;11.60;;;;;;;-1.29;87.55;97186.55;433160;1270;108932;-40
2022/04/02 04:29:34;;;;;;;16.80;10.80;;;;;;;-1.22;87.63;97190.52;433170;1270;99350;-41
2022/04/02 04:39:41;;;;;;;28.50;15.10;;;;;;;-1.17;87.42;97195.80;433120;1270;112534;-41
2022/04/02 04:49:48;;;;;;;26.50;16.50;;;;;;;-1.21;87.57;97203.91;432990;1270;108014;-41
2022/04/02 04:59:55;;;;;;;26.80;14.50;;;;;;;-1.28;87.64;97213.04;433390;1270;98883;-40
2022/04/02 05:10:02;;;;;;;41.60;20.30;;;;;;;-1.22;87.52;97220.09;433054;1270;107488;-40
2022/04/02 05:20:12;;;;;;;39.60;21.10;;;;;;;-1.18;87.61;97234.09;433043;1270;99938;-42
2022/04/02 05:30:20;;;;;;;22.90;14.80;;;;;;;-1.20;87.40;97234.52;433209;1270;112383;-38
2022/04/02 05:40:27;;;;;;;36.80;21.40;;;;;;;-1.21;87.33;97239.65;433203;1269;108876;-39
2022/04/02 05:50:33;;;;;;;24.00;15.20;;;;;;;-1.27;87.25;97243.69;433380;1270;99245;-40
2022/04/02 06:00:45;;;;;;;19.90;12.10;;;;;;;-1.22;87.42;97247.42;432728;1270;108860;-39
2022/04/02 06:10:52;;;;;;;16.30;11.00;;;;;;;-1.16;87.27;97254.27;433237;1270;99932;-39
2022/04/02 06:31:06;;;;;;;33.70;20.00;;;;;;;-1.24;87.25;97265.65;433226;1270;108758;-39
2022/04/02 06:41:14;;;;;;;35.70;19.40;;;;;;;-1.14;86.99;97269.77;432953;1270;99254;-40
2022/04/02 06:51:21;;;;;;;17.40;12.90;;;;;;;-1.05;87.05;97270.73;433057;1270;112267;-42
2022/04/02 07:01:28;;;;;;;19.10;11.70;;;;;;;-1.08;86.98;97278.51;433197;1270;108779;-40
2022/04/02 07:11:36;;;;;;;20.30;12.10;;;;;;;-1.17;86.90;97286.45;433034;1271;99246;-40
2022/04/02 07:21:41;;;;;;;14.30;9.50;;;;;;;-1.17;86.73;97292.96;432861;1269;112442;-39
2022/04/02 07:31:48;;;;;;;22.40;13.70;;;;;;;-1.10;86.71;97302.27;432968;1271;107735;-40
2022/04/02 07:42:03;;;;;;;33.70;20.80;;;;;;;-1.08;86.86;97302.20;432914;1270;98934;-39
2022/04/02 07:52:11;;;;;;;23.60;16.30;;;;;;;-1.15;86.50;97304.80;432788;1270;113061;-39
2022/04/02 08:12:46;;;;;;;25.20;13.40;;;;;;;-0.83;86.41;97319.91;432541;1270;99248;-39
2022/04/02 08:22:52;;;;;;;41.20;18.80;;;;;;;-0.83;86.10;97328.05;432745;1270;107793;-38
2022/04/02 08:33:10;;;;;;;18.60;10.70;;;;;;;-0.92;85.90;97341.08;432768;1269;99286;-39
2022/04/02 08:43:31;;;;;;;17.00;11.10;;;;;;;-0.95;85.77;97348.20;432945;1271;112586;-40
2022/04/02 08:53:48;;;;;;;30.50;13.40;;;;;;;-0.80;85.76;97360.90;432801;1271;107839;-39
2022/04/02 09:04:28;;;;;;;20.80;12.90;;;;;;;-0.80;85.58;97370.88;432918;1270;99361;-39
2022/04/02 09:15:01;;;;;;;19.60;11.50;;;;;;;-0.69;85.24;97380.76;430489;1270;111707;-39
2022/04/02 09:46:11;;;;;;;42.10;17.50;;;;;;;-0.40;84.39;97405.08;432855;1270;108848;-39
2022/04/02 09:56:17;;;;;;;16.80;11.50;;;;;;;-0.22;84.31;97408.42;432921;1270;99253;-39
2022/04/02 10:06:32;;;;;;;22.00;14.40;;;;;;;-0.19;84.06;97412.45;433052;1270;112398;-40
2022/04/02 10:16:42;;;;;;;23.60;16.30;;;;;;;-0.21;84.00;97415.27;432468;1270;108840;-40
2022/04/02 10:26:48;;;;;;;18.00;12.60;;;;;;;-0.27;83.39;97420.64;432936;1270;98077;-39
2022/04/02 10:37:06;;;;;;;21.10;12.30;;;;;;;-0.29;83.51;97427.55;432942;1270;109352;-40
2022/04/02 10:57:22;;;;;;;26.80;16.20;;;;;;;-0.11;83.16;97428.27;433086;1270;111378;-40
2022/04/02 11:17:37;;;;;;;34.10;18.00;;;;;;;0.17;82.59;97441.41;433207;1270;99376;-39
2022/04/02 11:27:49;;;;;;;22.70;15.30;;;;;;;0.08;82.53;97443.70;433030;1270;107449;-40
2022/04/02 11:38:14;;;;;;;22.90;12.60;;;;;;;0.13;82.51;97449.06;432840;1270;98872;-40
2022/04/02 11:48:29;;;;;;;15.90;10.70;;;;;;;0.31;82.30;97445.49;432844;1270;112516;-41
2022/04/02 12:08:49;;;;;;;24.00;14.50;;;;;;;0.31;82.43;97454.13;433116;1269;99298;-39
2022/04/02 12:29:06;;;;;;;15.50;10.20;;;;;;;0.48;82.11;97465.55;433239;1270;108992;-42
2022/04/02 12:39:12;;;;;;;24.30;11.10;;;;;;;0.48;82.52;97472.96;433449;1269;99279;-43
2022/04/02 12:49:29;;;;;;;21.60;11.60;;;;;;;0.49;82.49;97484.52;433174;1267;108872;-40
2022/04/02 12:59:44;;;;;;;29.10;16.40;;;;;;;0.62;82.67;97491.86;433416;1270;98374;-40
2022/04/02 13:09:53;;;;;;;33.80;18.00;;;;;;;0.70;82.75;97493.85;433175;1270;112443;-41
2022/04/02 13:30:25;;;;;;;22.00;12.60;;;;;;;1.08;82.70;97498.70;433254;1270;99283;-40
2022/04/02 13:40:36;;;;;;;26.40;16.60;;;;;;;1.08;82.79;97504.39;433515;1270;107190;-42
2022/04/02 13:50:51;;;;;;;38.40;20.70;;;;;;;0.96;82.96;97505.75;433264;1269;99257;-39
2022/04/02 14:11:16;;;;;;;23.40;14.50;;;;;;;1.02;82.99;97508.62;433358;1269;107673;-39
2022/04/02 14:21:23;;;;;;;28.30;16.70;;;;;;;1.02;82.90;97507.66;433263;1269;99176;-39
2022/04/02 14:32:07;;;;;;;40.70;22.60;;;;;;;1.06;83.25;97508.63;433390;1270;108967;-40
2022/04/02 14:42:13;;;;;;;36.80;19.80;;;;;;;1.12;83.24;97512.13;433253;1269;98505;-40
2022/04/02 15:03:26;;;;;;;24.90;15.40;;;;;;;1.29;83.14;97522.98;433205;1270;109138;-45
2022/04/02 15:13:34;;;;;;;23.80;13.20;;;;;;;1.35;82.93;97525.39;433405;1270;98853;-40
2022/04/02 15:23:49;;;;;;;43.10;20.20;;;;;;;1.41;83.08;97530.26;433423;1270;108599;-40
2022/04/02 15:33:57;;;;;;;29.90;19.20;;;;;;;1.32;83.09;97531.48;433544;1270;99368;-40
2022/04/02 15:44:03;;;;;;;57.00;29.30;;;;;;;1.31;83.25;97537.48;433262;1269;99315;-40
2022/04/02 16:04:34;;;;;;;47.30;25.20;;;;;;;1.26;83.10;97567.70;433350;1270;108877;-40
2022/04/02 16:14:41;;;;;;;37.10;22.20;;;;;;;1.29;83.09;97570.23;433226;1269;99247;-40
2022/04/02 16:24:56;;;;;;;32.80;19.40;;;;;;;1.35;82.97;97571.90;433329;1270;108875;-40
2022/04/02 16:45:15;;;;;;;50.90;29.80;;;;;;;1.51;83.35;97589.79;433486;1270;112345;-40
2022/04/02 16:55:22;;;;;;;87.00;40.60;;;;;;;1.39;83.15;97600.69;433443;1270;109635;-38
2022/04/02 17:05:29;;;;;;;95.60;45.30;;;;;;;1.15;83.06;97608.83;433463;1269;99305;-41
2022/04/02 17:15:37;;;;;;;76.70;38.20;;;;;;;0.97;83.26;97613.36;433299;1270;110648;-40
2022/04/02 17:25:45;;;;;;;75.90;44.40;;;;;;;0.87;83.21;97617.23;433342;1270;107577;-41
2022/04/02 17:35:55;;;;;;;81.90;43.70;;;;;;;0.94;83.31;97628.15;433357;1270;99359;-40
2022/04/02 17:46:03;;;;;;;115.90;55.90;;;;;;;1.00;83.47;97640.65;433483;1269;112413;-41
2022/04/02 18:06:21;;;;;;;127.40;62.20;;;;;;;0.80;83.40;97668.95;433410;1270;99347;-40
2022/04/02 18:16:28;;;;;;;126.30;63.00;;;;;;;0.51;83.54;97677.08;433379;1267;112434;-43
2022/04/02 18:36:41;;;;;;;115.10;64.30;;;;;;;0.30;83.57;97701.41;433340;1269;99248;-40
2022/04/02 18:46:48;;;;;;;115.00;64.20;;;;;;;0.37;83.64;97716.77;433293;1269;110653;-42
2022/04/02 18:56:55;;;;;;;90.40;49.90;;;;;;;0.43;83.64;97737.80;433333;1269;108855;-40
2022/04/02 19:17:09;;;;;;;88.90;44.60;;;;;;;0.33;83.97;97753.60;433411;1270;112018;-40
2022/04/02 19:27:16;;;;;;;52.20;29.20;;;;;;;0.19;83.92;97763.30;433356;1269;108857;-40
2022/04/02 19:37:23;;;;;;;50.10;29.20;;;;;;;-0.04;83.81;97771.25;433259;1270;99298;-39
2022/04/02 19:47:30;;;;;;;37.20;23.20;;;;;;;-0.14;83.72;97777.45;433418;1270;111074;-39
2022/04/02 19:57:39;;;;;;;45.40;23.50;;;;;;;-0.15;83.66;97779.17;432607;1271;108770;-40
2022/04/02 20:07:46;;;;;;;59.00;29.20;;;;;;;-0.13;83.63;97780.18;432581;1270;99278;-39
2022/04/02 20:28:00;;;;;;;54.80;23.10;;;;;;;-0.10;83.78;97782.54;433418;1269;99241;-43
2022/04/02 20:38:05;;;;;;;64.70;23.20;;;;;;;-0.14;83.53;97789.61;433198;1270;99246;-40
2022/04/02 20:48:12;;;;;;;37.00;14.70;;;;;;;-0.14;83.17;97789.05;432452;1269;108744;-42
2022/04/02 20:58:20;;;;;;;28.90;9.10;;;;;;;-0.09;82.78;97792.52;432233;1270;98962;-40
2022/04/02 21:08:27;;;;;;;28.80;10.90;;;;;;;-0.18;82.52;97802.55;432247;1270;529894;-40
2022/04/02 21:28:41;;;;;;;19.80;8.30;;;;;;;-0.44;81.81;97828.05;432621;1269;99932;-42
2022/04/02 21:38:48;;;;;;;22.50;8.00;;;;;;;-0.50;81.56;97836.79;433059;1271;112885;-40
2022/04/02 21:48:55;;;;;;;27.10;9.40;;;;;;;-0.56;81.44;97847.27;432607;1269;108656;-39
2022/04/02 21:59:03;;;;;;;22.10;8.70;;;;;;;-0.70;81.47;97859.55;432578;1270;99282;-41
2022/04/02 22:09:10;;;;;;;29.20;7.90;;;;;;;-0.80;81.17;97870.31;432569;1271;111715;-41
2022/04/02 22:19:17;;;;;;;15.80;5.60;;;;;;;-0.81;80.96;97872.82;432625;1270;108883;-39
2022/04/02 22:39:30;;;;;;;24.70;9.10;;;;;;;-0.92;80.63;97895.36;432478;1271;108747;-41
2022/04/02 22:49:37;;;;;;;22.60;7.80;;;;;;;-1.06;80.63;97897.84;432506;1270;99257;-39
2022/04/02 22:59:45;;;;;;;12.50;7.00;;;;;;;-1.15;80.58;97906.09;432327;1270;113348;-40
2022/04/02 23:09:51;;;;;;;22.90;7.60;;;;;;;-1.17;80.51;97912.58;432896;1270;107841;-42
2022/04/02 23:19:56;;;;;;;22.80;9.80;;;;;;;-1.25;80.53;97917.59;432512;1270;99254;-43
2022/04/02 23:30:04;;;;;;;32.20;10.70;;;;;;;-1.36;80.65;97922.34;432926;1269;113012;-44
2022/04/02 23:50:19;;;;;;;16.30;5.90;;;;;;;-1.50;80.31;97922.95;432662;1269;99359;-39
